Pleasant Grove, Minnesota
Current Conditions -  °F | °C
As of 2:54 AM on Friday 24 Oct 2014 (Local Time) from KRST Reporting Station
Moderate Fog Moderate Fog  
Wind Chill: 42°   Ceiling: 100
Heat Index: 46°   Visibility: 0.25mi
Dew Point: 46°   Wind: 8mph
Humidity: 100%   Direction: 170°S
Pressure: 30.01"   Gusts: NA
Location:  43.8884°N, 92.383°W
Report Text: KRST 240754Z AUTO 17007KT 1/4SM R31/1600FT FG VV001 08/08 A3001 RMK AO2 SLP165 T00780078
Loading
Personal Weather Stations






























Interactive Weather Map
Tropical Storm Tracking
New forecast layout! Learn more

10-Day Weather Forecast

Advertisements
Track Severe Weather on mobile